Time;durP1;ratioP1;P1;durP2;ratioP2;P2;SDS_P1;SDS_P2;PMS_P1;PMS_P2;Temp;Humidity;BMP_temperature;BMP_pressure;BME280_temperature;BME280_humidity;BME280_pressure;Samples;Min_cycle;Max_cycle;Signal;HPM_P1;HPM_P2
2020/12/10 00:00:27;;;;;;;53.20;28.50;;;;;;;-0.40;100.00;94985.78;1023291;28;20050;-69
2020/12/10 00:00:57;;;;;;;49.40;27.33;;;;;;;-0.39;100.00;94979.63;1030442;28;20592;-68
2020/12/10 00:01:31;;;;;;;55.50;28.87;;;;;;;-0.37;100.00;94976.81;1033755;28;20491;-68
2020/12/10 00:02:01;;;;;;;53.28;29.05;;;;;;;-0.37;100.00;94976.81;1035264;28;20030;-68
2020/12/10 00:02:32;;;;;;;60.83;30.25;;;;;;;-0.38;100.00;94975.25;1042387;28;20037;-68
2020/12/10 00:03:02;;;;;;;57.00;29.47;;;;;;;-0.40;100.00;94978.03;1038400;28;20025;-69
2020/12/10 00:03:33;;;;;;;61.53;30.97;;;;;;;-0.48;100.00;94965.41;1034268;28;20407;-67
2020/12/10 00:04:03;;;;;;;52.27;28.67;;;;;;;-0.36;100.00;94979.19;1031454;28;20034;-69
2020/12/10 00:04:34;;;;;;;67.50;31.07;;;;;;;-0.39;100.00;94979.63;1030362;28;20037;-65
2020/12/10 00:05:07;;;;;;;63.53;30.27;;;;;;;-0.37;100.00;94981.97;1030386;28;20526;-69
2020/12/10 00:05:37;;;;;;;58.42;30.05;;;;;;;-0.38;100.00;94978.59;1030255;28;20556;-70
2020/12/10 00:06:08;;;;;;;48.77;27.97;;;;;;;-0.37;100.00;94981.97;1034498;28;20046;-69
2020/12/10 00:06:38;;;;;;;50.63;28.23;;;;;;;-0.47;100.00;94961.84;1030589;28;20022;-69
2020/12/10 00:07:09;;;;;;;57.80;28.60;;;;;;;-0.38;100.00;94981.19;1026135;28;20062;-67
2020/12/10 00:07:39;;;;;;;53.93;29.00;;;;;;;-0.39;100.00;94984.00;1026007;28;20035;-67
2020/12/10 00:08:10;;;;;;;49.97;27.47;;;;;;;-0.38;100.00;94985.56;1026491;28;20023;-68
2020/12/10 00:08:40;;;;;;;53.83;29.50;;;;;;;-0.38;100.00;94988.91;1026336;28;20018;-67
2020/12/10 00:09:11;;;;;;;62.17;29.65;;;;;;;-0.39;100.00;94984.78;1034508;28;20411;-68
2020/12/10 00:09:41;;;;;;;60.63;29.37;;;;;;;-0.38;100.00;94978.59;1038150;28;20457;-68
2020/12/10 00:10:12;;;;;;;56.13;29.37;;;;;;;-0.47;100.00;94972.13;1030500;28;20022;-67
2020/12/10 00:10:45;;;;;;;61.53;30.37;;;;;;;-0.39;100.00;94979.63;1030128;28;20069;-69
2020/12/10 00:11:16;;;;;;;58.65;29.73;;;;;;;-0.39;100.00;94979.63;1030933;28;20030;-67
2020/12/10 00:11:47;;;;;;;48.57;27.13;;;;;;;-0.36;100.00;94979.19;1030020;28;20451;-67
2020/12/10 00:12:18;;;;;;;46.95;26.85;;;;;;;-0.49;100.00;94961.28;1033532;28;20443;-67
2020/12/10 00:12:48;;;;;;;45.10;26.90;;;;;;;-0.39;100.00;94979.63;1043310;28;20028;-69
2020/12/10 00:13:19;;;;;;;48.43;28.00;;;;;;;-0.49;100.00;94963.84;1038522;28;20021;-67
2020/12/10 00:13:50;;;;;;;54.87;29.77;;;;;;;-0.38;100.00;94981.19;1030153;28;20576;-68
2020/12/10 00:14:20;;;;;;;54.67;28.97;;;;;;;-0.38;100.00;94978.59;1030279;28;20030;-67
2020/12/10 00:14:53;;;;;;;64.63;31.43;;;;;;;-0.38;100.00;94981.19;1034462;28;20095;-69
2020/12/10 00:15:24;;;;;;;47.15;26.60;;;;;;;-0.35;100.00;94980.75;1030324;28;20027;-67
2020/12/10 00:15:54;;;;;;;51.13;28.07;;;;;;;-0.35;100.00;94977.41;1032309;28;20065;-67
2020/12/10 00:16:25;;;;;;;64.80;31.00;;;;;;;-0.37;100.00;94982.78;1034791;28;20029;-66
2020/12/10 00:16:55;;;;;;;52.27;29.20;;;;;;;-0.37;100.00;94977.63;1038512;28;20033;-67
2020/12/10 00:17:27;;;;;;;55.87;29.23;;;;;;;-0.43;100.00;94965.59;1038282;28;20033;-66
2020/12/10 00:17:57;;;;;;;53.58;29.30;;;;;;;-0.36;100.00;94979.19;1046991;28;20096;-66
2020/12/10 00:18:28;;;;;;;50.13;28.03;;;;;;;-0.37;100.00;94969.91;1046281;28;20031;-68
2020/12/10 00:18:58;;;;;;;56.37;29.20;;;;;;;-0.38;100.00;94975.25;1022176;29;20533;-69
2020/12/10 00:19:29;;;;;;;59.17;31.33;;;;;;;-0.36;100.00;94974.03;1022576;28;20054;-68
2020/12/10 00:19:59;;;;;;;58.43;29.97;;;;;;;-0.41;100.00;94961.00;1026125;28;20031;-66
2020/12/10 00:20:29;;;;;;;46.50;27.07;;;;;;;-0.35;100.00;94975.59;1026133;28;20120;-70
2020/12/10 00:21:00;;;;;;;59.00;29.93;;;;;;;-0.37;100.00;94974.22;1027606;28;20069;-69
2020/12/10 00:21:30;;;;;;;53.20;28.33;;;;;;;-0.40;100.00;94979.81;1029024;28;20030;-68
2020/12/10 00:22:01;;;;;;;46.57;26.00;;;;;;;-0.39;100.00;94971.88;1046997;28;20036;-67
2020/12/10 00:22:32;;;;;;;46.17;28.17;;;;;;;-0.53;100.00;94952.41;1046869;28;20032;-68
2020/12/10 00:23:03;;;;;;;58.55;29.75;;;;;;;-0.40;100.00;94975.47;1026158;28;20026;-68
2020/12/10 00:23:36;;;;;;;94.22;35.40;;;;;;;-0.39;100.00;94969.31;1026795;28;20475;-69
2020/12/10 00:24:06;;;;;;;53.88;29.08;;;;;;;-0.35;100.00;94970.44;1026729;28;20054;-70
2020/12/10 00:24:37;;;;;;;47.60;26.40;;;;;;;-0.34;100.00;94966.09;1021866;29;20042;-68
2020/12/10 00:25:07;;;;;;;51.27;28.47;;;;;;;-0.34;100.00;94968.66;1023122;28;20079;-68
2020/12/10 00:25:38;;;;;;;52.53;28.17;;;;;;;-0.36;100.00;94963.72;1029940;28;20494;-68
2020/12/10 00:26:10;;;;;;;51.13;28.37;;;;;;;-0.35;100.00;94967.09;1030103;28;20037;-69
2020/12/10 00:26:41;;;;;;;46.67;27.70;;;;;;;-0.39;100.00;94964.16;1038127;28;20671;-69
2020/12/10 00:27:11;;;;;;;50.80;27.33;;;;;;;-0.35;100.00;94965.28;1038467;28;20037;-67
2020/12/10 00:27:42;;;;;;;58.27;29.47;;;;;;;-0.34;100.00;94971.22;1030258;28;20026;-67
2020/12/10 00:28:12;;;;;;;55.40;28.23;;;;;;;-0.36;100.00;94963.72;1034250;28;20029;-68
2020/12/10 00:28:43;;;;;;;53.87;28.53;;;;;;;-0.37;100.00;94961.34;1034015;28;20502;-67
2020/12/10 00:29:13;;;;;;;49.03;28.00;;;;;;;-0.42;100.00;94961.22;1030370;28;20033;-68
2020/12/10 00:29:45;;;;;;;58.05;29.40;;;;;;;-0.37;100.00;94951.84;1029981;28;20033;-69
2020/12/10 00:30:15;;;;;;;51.42;27.65;;;;;;;-0.34;100.00;94966.88;1030332;28;20030;-65
2020/12/10 00:30:46;;;;;;;48.30;27.27;;;;;;;-0.37;100.00;94962.16;1029991;28;20129;-68
2020/12/10 00:31:16;;;;;;;47.37;27.67;;;;;;;-0.42;100.00;94954.28;1030269;28;20038;-70
2020/12/10 00:31:46;;;;;;;62.20;31.60;;;;;;;-0.41;100.00;94961.00;1029656;28;20045;-67
2020/12/10 00:32:17;;;;;;;60.47;29.83;;;;;;;-0.41;100.00;94961.00;1026141;28;20031;-67
2020/12/10 00:32:47;;;;;;;62.53;30.07;;;;;;;-0.39;100.00;94958.22;1022952;28;20286;-68
2020/12/10 00:33:18;;;;;;;41.77;25.10;;;;;;;-0.44;100.00;94956.25;1026297;28;20496;-70
2020/12/10 00:33:48;;;;;;;62.83;30.77;;;;;;;-0.40;100.00;94959.19;1026364;28;20023;-67
2020/12/10 00:34:19;;;;;;;47.33;26.30;;;;;;;-0.47;100.00;94943.78;1026336;28;20425;-67
2020/12/10 00:34:49;;;;;;;44.33;26.87;;;;;;;-0.47;100.00;94946.38;1033547;28;20034;-69
2020/12/10 00:35:20;;;;;;;55.27;29.03;;;;;;;-0.40;100.00;94960.00;1030166;28;20404;-69
2020/12/10 00:35:50;;;;;;;51.10;29.07;;;;;;;-0.40;100.00;94957.44;1022176;28;20036;-70
2020/12/10 00:36:21;;;;;;;62.50;31.30;;;;;;;-0.39;100.00;94953.84;1025996;28;20030;-67
2020/12/10 00:36:51;;;;;;;47.90;27.07;;;;;;;-0.38;100.00;94960.56;1026223;28;20462;-68
2020/12/10 00:37:25;;;;;;;46.83;28.07;;;;;;;-0.37;100.00;94957.00;1026326;28;20027;-67
2020/12/10 00:37:56;;;;;;;41.83;25.27;;;;;;;-0.35;100.00;94956.78;1027242;28;20171;-69
2020/12/10 00:38:27;;;;;;;47.53;27.47;;;;;;;-0.36;100.00;94956.00;1034335;28;20055;-67
2020/12/10 00:38:58;;;;;;;50.53;28.90;;;;;;;-0.46;100.00;94940.25;1034876;28;20091;-67
2020/12/10 00:39:28;;;;;;;45.17;26.30;;;;;;;-0.34;100.00;94955.78;1030414;28;20443;-69
2020/12/10 00:39:59;;;;;;;45.43;26.70;;;;;;;-0.33;100.00;94954.78;1026201;28;20042;-67
2020/12/10 00:40:29;;;;;;;42.63;26.80;;;;;;;-0.34;100.00;94956.56;1026499;28;20030;-67
2020/12/10 00:41:00;;;;;;;44.43;26.33;;;;;;;-0.36;100.00;94953.41;1030005;28;20132;-67
2020/12/10 00:41:30;;;;;;;41.17;25.13;;;;;;;-0.35;100.00;94955.00;1030783;28;20117;-70
2020/12/10 00:42:02;;;;;;;44.10;26.03;;;;;;;-0.40;100.00;94952.28;1033988;28;20627;-67
2020/12/10 00:42:35;;;;;;;61.35;30.50;;;;;;;-0.39;100.00;94943.53;1026459;28;20027;-67
2020/12/10 00:43:05;;;;;;;54.15;27.58;;;;;;;-0.36;100.00;94953.41;1046962;28;20033;-69
2020/12/10 00:43:36;;;;;;;47.90;27.23;;;;;;;-0.36;100.00;94956.00;1040608;28;20039;-70
2020/12/10 00:44:06;;;;;;;60.40;30.57;;;;;;;-0.37;100.00;94956.19;1023281;28;20129;-69
2020/12/10 00:44:37;;;;;;;57.10;29.43;;;;;;;-0.37;100.00;94957.00;1022117;28;20050;-65
2020/12/10 00:45:07;;;;;;;44.57;26.27;;;;;;;-0.33;100.00;94954.78;1026730;28;20031;-69
2020/12/10 00:45:38;;;;;;;52.67;28.07;;;;;;;-0.38;100.00;94944.31;1030214;28;20034;-67
2020/12/10 00:46:08;;;;;;;55.80;28.93;;;;;;;-0.30;100.00;94962.09;1026386;28;20027;-70
2020/12/10 00:46:39;;;;;;;44.22;25.30;;;;;;;-0.32;100.00;94954.56;1026171;28;20555;-69
2020/12/10 00:47:10;;;;;;;45.75;25.45;;;;;;;-0.40;100.00;94941.16;1024467;28;20073;-68
2020/12/10 00:47:40;;;;;;;44.63;26.40;;;;;;;-0.36;100.00;94958.56;1030176;28;20030;-68
2020/12/10 00:48:11;;;;;;;59.22;29.23;;;;;;;-0.34;100.00;94959.13;1030300;28;20034;-69
2020/12/10 00:48:41;;;;;;;66.07;31.00;;;;;;;-0.47;100.00;94936.06;1029933;28;20088;-68
2020/12/10 00:49:12;;;;;;;81.50;34.23;;;;;;;-0.37;100.00;94956.19;1026096;28;20072;-66
2020/12/10 00:49:43;;;;;;;72.97;33.07;;;;;;;-0.33;100.00;94954.78;1047147;28;20032;-66
2020/12/10 00:50:13;;;;;;;64.43;30.40;;;;;;;-0.37;100.00;94957.00;1047111;28;20020;-66
2020/12/10 00:50:44;;;;;;;85.73;34.67;;;;;;;-0.46;100.00;94944.59;1047075;28;20032;-68
2020/12/10 00:51:14;;;;;;;45.57;26.37;;;;;;;-0.37;100.00;94951.03;1046557;28;20060;-68
2020/12/10 00:51:46;;;;;;;36.80;23.43;;;;;;;-0.37;100.00;94945.88;1025407;28;20031;-70
2020/12/10 00:52:16;;;;;;;35.17;23.52;;;;;;;-0.30;100.00;94951.78;1026147;28;20437;-69
2020/12/10 00:52:47;;;;;;;42.00;26.10;;;;;;;-0.31;100.00;94958.72;1026032;28;20034;-69
2020/12/10 00:53:17;;;;;;;42.23;25.80;;;;;;;-0.40;100.00;94941.16;1022562;28;20027;-66
2020/12/10 00:53:47;;;;;;;52.33;27.15;;;;;;;-0.31;100.00;94956.13;1026180;28;20787;-69
2020/12/10 00:54:18;;;;;;;48.33;27.00;;;;;;;-0.38;100.00;94950.25;1029995;28;20041;-67
2020/12/10 00:54:49;;;;;;;41.53;25.33;;;;;;;-0.39;100.00;94940.97;1034178;28;20022;-70
2020/12/10 00:55:19;;;;;;;35.90;23.57;;;;;;;-0.30;100.00;94952.56;1025931;28;20023;-69
2020/12/10 00:55:50;;;;;;;38.33;23.80;;;;;;;-0.45;100.00;94934.06;1026071;28;20025;-69
2020/12/10 00:56:20;;;;;;;41.58;25.00;;;;;;;-0.32;100.00;94944.25;1022385;28;20586;-69
2020/12/10 00:56:51;;;;;;;60.43;29.67;;;;;;;-0.32;100.00;94954.56;1026304;28;20049;-70
2020/12/10 00:57:21;;;;;;;55.90;28.70;;;;;;;-0.35;100.00;94955.00;1025827;28;20058;-69
2020/12/10 00:57:52;;;;;;;62.13;30.50;;;;;;;-0.34;100.00;94950.63;1022221;28;20653;-70
2020/12/10 00:58:23;;;;;;;72.93;32.72;;;;;;;-0.33;100.00;94947.06;1026167;28;20032;-67
2020/12/10 00:58:53;;;;;;;49.25;27.45;;;;;;;-0.40;100.00;94936.81;1026231;28;20022;-67
2020/12/10 00:59:24;;;;;;;44.47;26.60;;;;;;;-0.34;100.00;94948.81;1030183;28;20038;-68
2020/12/10 00:59:54;;;;;;;51.67;27.50;;;;;;;-0.33;100.00;94950.41;1034295;28;20711;-67
2020/12/10 01:00:25;;;;;;;57.63;29.37;;;;;;;-0.33;100.00;94942.69;1038175;28;20070;-66
2020/12/10 01:00:55;;;;;;;60.27;29.60;;;;;;;-0.38;100.00;94939.94;1034281;28;20087;-69
2020/12/10 01:01:26;;;;;;;66.47;31.53;;;;;;;-0.36;100.00;94944.91;1033605;28;20088;-67
2020/12/10 01:01:56;;;;;;;61.27;29.67;;;;;;;-0.35;100.00;94939.53;1029859;28;20034;-69
2020/12/10 01:02:27;;;;;;;66.30;31.37;;;;;;;-0.39;100.00;94938.38;1030084;28;20399;-69
2020/12/10 01:02:57;;;;;;;50.43;28.90;;;;;;;-0.32;100.00;94940.91;1029876;28;20034;-68
2020/12/10 01:03:27;;;;;;;64.30;29.10;;;;;;;-0.33;100.00;94945.25;1026385;28;20073;-69
2020/12/10 01:03:58;;;;;;;71.17;32.47;;;;;;;-0.32;100.00;94943.47;1025608;28;20081;-69
2020/12/10 01:04:28;;;;;;;83.17;34.30;;;;;;;-0.58;100.00;94901.50;1022288;28;20051;-66
2020/12/10 01:04:59;;;;;;;54.80;29.65;;;;;;;-0.34;100.00;94935.94;1026251;28;20043;-70
2020/12/10 01:05:29;;;;;;;58.60;29.87;;;;;;;-0.35;100.00;94939.53;1029458;28;20057;-69
2020/12/10 01:06:00;;;;;;;60.58;29.48;;;;;;;-0.31;100.00;94940.66;1030024;28;20045;-67
2020/12/10 01:06:30;;;;;;;68.63;32.28;;;;;;;-0.34;100.00;94941.09;1034265;28;20660;-67
2020/12/10 01:07:01;;;;;;;48.80;28.20;;;;;;;-0.33;100.00;94941.91;1034099;28;20033;-66
2020/12/10 01:07:31;;;;;;;51.07;29.80;;;;;;;-0.32;100.00;94939.09;1026090;28;20088;-69
2020/12/10 01:08:02;;;;;;;58.00;29.70;;;;;;;-0.30;100.00;94942.25;1022568;28;20035;-68
2020/12/10 01:08:32;;;;;;;66.03;32.03;;;;;;;-0.38;100.00;94934.78;1028680;28;20061;-68
2020/12/10 01:09:06;;;;;;;63.37;30.10;;;;;;;-0.43;100.00;94921.78;1026964;28;20076;-64
2020/12/10 01:09:37;;;;;;;50.92;27.67;;;;;;;-0.30;100.00;94937.09;1033439;28;20041;-66
2020/12/10 01:10:07;;;;;;;49.47;27.73;;;;;;;-0.32;100.00;94944.25;1030636;28;20104;-67
2020/12/10 01:10:38;;;;;;;62.80;30.30;;;;;;;-0.32;100.00;94939.09;1034092;28;20029;-67
2020/12/10 01:11:08;;;;;;;68.53;30.70;;;;;;;-0.34;100.00;94940.31;1038174;28;20436;-69
2020/12/10 01:11:39;;;;;;;52.03;28.50;;;;;;;-0.33;100.00;94937.53;1039340;27;20026;-68
2020/12/10 01:12:09;;;;;;;58.77;29.27;;;;;;;-0.33;100.00;94931.59;1040635;28;20487;-69
2020/12/10 01:12:41;;;;;;;67.53;30.87;;;;;;;-0.39;100.00;94927.28;1037934;28;20029;-67
2020/12/10 01:13:11;;;;;;;39.67;24.08;;;;;;;-0.37;100.00;94927.84;1026178;28;20765;-67
2020/12/10 01:13:43;;;;;;;37.27;23.90;;;;;;;-0.30;100.00;94937.09;1020792;28;20039;-67
2020/12/10 01:14:13;;;;;;;40.55;25.02;;;;;;;-0.30;100.00;94947.41;1026131;28;20031;-69
2020/12/10 01:14:44;;;;;;;39.70;25.00;;;;;;;-0.42;100.00;94922.56;1025973;28;20031;-68
2020/12/10 01:15:14;;;;;;;40.20;24.73;;;;;;;-0.29;100.00;94943.03;1033313;28;20060;-67
2020/12/10 01:15:45;;;;;;;40.90;25.73;;;;;;;-0.37;100.00;94927.84;1026101;28;20061;-69
2020/12/10 01:16:15;;;;;;;48.67;27.37;;;;;;;-0.30;100.00;94941.47;1025612;28;20587;-67
2020/12/10 01:16:46;;;;;;;46.57;26.90;;;;;;;-0.32;100.00;94944.25;1025828;28;20031;-67
2020/12/10 01:17:16;;;;;;;66.80;31.35;;;;;;;-0.33;100.00;94945.25;1026492;28;20475;-72
2020/12/10 01:17:47;;;;;;;72.13;31.60;;;;;;;-0.32;100.00;94944.25;1030015;28;20022;-69
2020/12/10 01:18:17;;;;;;;45.87;26.70;;;;;;;-0.28;100.00;94947.19;1029020;28;20023;-68
2020/12/10 01:18:48;;;;;;;54.27;28.90;;;;;;;-0.37;100.00;94945.88;1029884;28;20431;-67
2020/12/10 01:19:19;;;;;;;53.03;27.30;;;;;;;-0.47;100.00;94928.34;1029824;28;20113;-70
2020/12/10 01:19:49;;;;;;;54.27;29.00;;;;;;;-0.33;100.00;94944.47;1024372;28;20088;-69
2020/12/10 01:20:20;;;;;;;58.97;29.33;;;;;;;-0.32;100.00;94946.03;1025620;28;20026;-68
2020/12/10 01:20:50;;;;;;;55.40;29.20;;;;;;;-0.46;100.00;94926.56;1025876;28;20090;-67
2020/12/10 01:21:33;;;;;;;53.90;27.83;;;;;;;-0.46;100.00;94932.50;1022004;28;20464;-68
2020/12/10 01:22:04;;;;;;;46.92;26.98;;;;;;;-0.39;100.00;94938.38;1020698;28;20035;-70
2020/12/10 01:22:34;;;;;;;44.00;25.37;;;;;;;-0.35;100.00;94941.31;1025406;28;20063;-71
2020/12/10 01:23:05;;;;;;;47.63;26.40;;;;;;;-0.33;100.00;94947.84;1018125;29;20154;-66
2020/12/10 01:23:35;;;;;;;49.17;26.87;;;;;;;-0.28;100.00;94947.19;1025353;28;20514;-68
2020/12/10 01:24:06;;;;;;;51.43;27.43;;;;;;;-0.30;100.00;94941.47;1033901;28;20034;-67
2020/12/10 01:24:37;;;;;;;60.93;28.90;;;;;;;-0.30;100.00;94944.84;1022875;28;20389;-65
2020/12/10 01:25:07;;;;;;;51.80;27.13;;;;;;;-0.41;100.00;94930.06;1030247;28;20022;-67
2020/12/10 01:25:38;;;;;;;54.17;28.57;;;;;;;-0.30;100.00;94947.41;1028095;28;20026;-68
2020/12/10 01:26:11;;;;;;;45.87;27.20;;;;;;;-0.30;100.00;94944.06;1026008;28;20476;-68
2020/12/10 01:26:43;;;;;;;73.82;32.75;;;;;;;-0.43;100.00;94926.94;1026025;28;20042;-69
2020/12/10 01:27:13;;;;;;;89.63;35.95;;;;;;;-0.33;100.00;94940.09;1022623;28;20024;-69
2020/12/10 01:27:44;;;;;;;83.50;34.33;;;;;;;-0.33;100.00;94940.09;1026421;28;20023;-67
2020/12/10 01:28:14;;;;;;;67.30;31.17;;;;;;;-0.30;100.00;94944.06;1030576;28;20026;-68
2020/12/10 01:28:45;;;;;;;45.90;25.70;;;;;;;-0.31;100.00;94945.81;1029891;28;20498;-70
2020/12/10 01:29:15;;;;;;;38.13;24.13;;;;;;;-0.32;100.00;94940.91;1026040;28;20085;-68
2020/12/10 01:29:46;;;;;;;43.27;25.87;;;;;;;-0.34;100.00;94935.94;1026015;28;20133;-68
2020/12/10 01:30:16;;;;;;;49.60;27.07;;;;;;;-0.31;100.00;94938.09;1025933;28;20490;-69
2020/12/10 01:30:47;;;;;;;55.20;28.87;;;;;;;-0.32;100.00;94943.47;1026234;28;20033;-70
2020/12/10 01:31:17;;;;;;;51.13;27.40;;;;;;;-0.32;100.00;94944.25;1029779;28;20052;-68
2020/12/10 01:31:48;;;;;;;50.17;27.47;;;;;;;-0.31;100.00;94945.81;1025298;28;20085;-66
2020/12/10 01:32:22;;;;;;;61.92;29.65;;;;;;;-0.35;100.00;94929.22;1026184;28;20474;-67
2020/12/10 01:32:52;;;;;;;58.20;30.73;;;;;;;-0.30;100.00;94942.25;1022404;28;20036;-68
2020/12/10 01:33:23;;;;;;;54.80;27.93;;;;;;;-0.27;100.00;94941.84;1026536;28;20492;-67
2020/12/10 01:33:53;;;;;;;44.67;25.93;;;;;;;-0.31;100.00;94932.94;1029902;28;20076;-69
2020/12/10 01:34:24;;;;;;;70.33;30.83;;;;;;;-0.35;100.00;94929.22;1026149;28;20034;-67
2020/12/10 01:34:54;;;;;;;90.07;34.73;;;;;;;-0.31;100.00;94940.66;1030130;28;20042;-68
2020/12/10 01:35:25;;;;;;;100.40;37.03;;;;;;;-0.40;100.00;94926.50;1025720;28;20035;-66
2020/12/10 01:35:55;;;;;;;64.60;29.55;;;;;;;-0.30;100.00;94941.47;1022111;29;20035;-69
2020/12/10 01:36:27;;;;;;;58.20;28.37;;;;;;;-0.40;100.00;94921.34;1022196;29;20480;-70
2020/12/10 01:36:58;;;;;;;71.93;30.23;;;;;;;-0.29;100.00;94935.31;1026784;28;20037;-70
2020/12/10 01:37:28;;;;;;;69.33;32.17;;;;;;;-0.31;100.00;94942.47;1026071;28;20436;-69
2020/12/10 01:37:59;;;;;;;63.07;30.33;;;;;;;-0.39;100.00;94920.34;1025974;28;20034;-67
2020/12/10 01:38:29;;;;;;;71.00;31.67;;;;;;;-0.31;100.00;94932.94;1026407;28;20106;-66
2020/12/10 01:39:00;;;;;;;96.13;35.83;;;;;;;-0.29;100.00;94932.72;1029722;28;20038;-69
2020/12/10 01:39:30;;;;;;;90.77;35.60;;;;;;;-0.30;100.00;94931.16;1034052;28;20462;-68
2020/12/10 01:40:04;;;;;;;48.33;28.03;;;;;;;-0.32;100.00;94928.00;1033952;28;20550;-67
2020/12/10 01:40:35;;;;;;;51.20;28.17;;;;;;;-0.33;100.00;94934.16;1029080;28;20035;-67
2020/12/10 01:41:05;;;;;;;72.43;32.00;;;;;;;-0.34;100.00;94933.34;1029899;28;20034;-68
2020/12/10 01:41:36;;;;;;;43.33;26.30;;;;;;;-0.36;100.00;94927.66;1024736;28;20033;-69
2020/12/10 01:42:06;;;;;;;39.00;24.53;;;;;;;-0.33;100.00;94932.38;1023002;28;20035;-68
2020/12/10 01:42:37;;;;;;;69.93;32.27;;;;;;;-0.38;100.00;94919.34;1030121;28;20048;-66
2020/12/10 01:43:07;;;;;;;69.80;31.80;;;;;;;-0.32;100.00;94928.78;1034230;28;20049;-68
2020/12/10 01:43:38;;;;;;;64.10;31.10;;;;;;;-0.40;100.00;94918.78;1037970;28;20025;-67
2020/12/10 01:44:10;;;;;;;55.93;29.03;;;;;;;-0.35;100.00;94926.63;1025863;28;20537;-68
2020/12/10 01:44:41;;;;;;;58.72;29.63;;;;;;;-0.40;100.00;94921.34;1018159;28;20048;-67
2020/12/10 01:45:11;;;;;;;44.80;26.60;;;;;;;-0.32;100.00;94928.78;1022069;29;20031;-68
2020/12/10 01:45:42;;;;;;;44.53;26.83;;;;;;;-0.30;100.00;94924.22;1022018;28;20815;-67
2020/12/10 01:46:12;;;;;;;45.20;27.07;;;;;;;-0.39;100.00;94914.41;1026201;28;20042;-66
2020/12/10 01:46:43;;;;;;;46.90;26.03;;;;;;;-0.33;100.00;94922.06;1018179;28;20031;-67
2020/12/10 01:47:13;;;;;;;58.47;29.57;;;;;;;-0.33;100.00;94921.28;1027072;28;20034;-68
2020/12/10 01:47:44;;;;;;;51.87;28.33;;;;;;;-0.31;100.00;94920.03;1029831;28;20026;-70
2020/12/10 01:48:14;;;;;;;44.73;26.43;;;;;;;-0.32;100.00;94922.84;1026037;28;20027;-66
2020/12/10 01:48:45;;;;;;;72.30;31.55;;;;;;;-0.33;100.00;94924.66;1022060;28;20635;-68
2020/12/10 01:49:15;;;;;;;51.47;28.37;;;;;;;-0.32;100.00;94922.84;1025804;28;20038;-66
2020/12/10 01:49:49;;;;;;;70.90;31.03;;;;;;;-0.36;100.00;94917.34;1029978;28;20104;-68
2020/12/10 01:50:20;;;;;;;67.76;30.80;;;;;;;-0.33;100.00;94919.50;1023131;28;20019;-66
2020/12/10 01:50:50;;;;;;;80.93;33.10;;;;;;;-0.29;100.00;94912.13;1026485;28;20023;-69
2020/12/10 01:51:21;;;;;;;76.73;31.80;;;;;;;-0.28;100.00;94916.25;1025599;28;20120;-67
2020/12/10 01:51:51;;;;;;;84.00;33.70;;;;;;;-0.34;100.00;94914.53;1022152;28;20400;-69
2020/12/10 01:52:22;;;;;;;80.23;33.03;;;;;;;-0.34;100.00;94915.31;1025863;28;20022;-67
2020/12/10 01:52:52;;;;;;;58.70;28.93;;;;;;;-0.40;100.00;94899.94;1030098;28;20038;-67
2020/12/10 01:53:23;;;;;;;60.83;29.77;;;;;;;-0.40;100.00;94899.94;1025921;28;20031;-69
2020/12/10 01:53:53;;;;;;;71.73;30.70;;;;;;;-0.33;100.00;94906.59;1029884;28;20031;-66
2020/12/10 01:54:24;;;;;;;53.87;28.57;;;;;;;-0.32;100.00;94913.31;1033980;28;20463;-66
2020/12/10 01:54:54;;;;;;;59.97;29.42;;;;;;;-0.30;100.00;94911.34;1034135;28;20490;-67
2020/12/10 01:55:25;;;;;;;49.80;26.97;;;;;;;-0.42;100.00;94896.78;1033988;28;20526;-68
2020/12/10 01:55:55;;;;;;;58.43;28.67;;;;;;;-0.34;100.00;94902.44;1032400;28;20079;-68
2020/12/10 01:56:26;;;;;;;59.77;29.67;;;;;;;-0.36;100.00;94894.16;1022043;29;20524;-67
2020/12/10 01:56:56;;;;;;;88.88;34.60;;;;;;;-0.32;100.00;94899.66;1025918;28;20037;-71
2020/12/10 01:57:28;;;;;;;70.15;31.35;;;;;;;-0.39;100.00;94897.16;1021876;28;20050;-68
2020/12/10 01:57:59;;;;;;;51.08;27.02;;;;;;;-0.34;100.00;94897.28;1018054;29;20027;-68
2020/12/10 01:58:30;;;;;;;55.78;29.08;;;;;;;-0.36;100.00;94899.31;1026111;28;20035;-70
2020/12/10 01:59:00;;;;;;;54.10;27.90;;;;;;;-0.34;100.00;94905.00;1025961;28;20654;-67
2020/12/10 01:59:31;;;;;;;40.85;24.15;;;;;;;-0.35;100.00;94903.44;1026135;28;20038;-69
2020/12/10 02:00:01;;;;;;;61.70;29.97;;;;;;;-0.35;100.00;94902.66;1026092;28;20085;-69
2020/12/10 02:00:32;;;;;;;60.03;29.10;;;;;;;-0.35;100.00;94905.25;1034148;28;20553;-70
2020/12/10 02:01:02;;;;;;;45.17;25.77;;;;;;;-0.37;100.00;94896.91;1033890;28;20119;-68
2020/12/10 02:01:33;;;;;;;52.72;27.15;;;;;;;-0.42;100.00;94891.63;1021337;28;20035;-68
2020/12/10 02:02:03;;;;;;;57.50;29.03;;;;;;;-0.32;100.00;94902.22;1017911;29;20044;-68
2020/12/10 02:02:43;;;;;;;38.28;23.40;;;;;;;-0.32;100.00;94904.81;1021651;28;20508;-69
2020/12/10 02:03:13;;;;;;;38.93;23.77;;;;;;;-0.32;100.00;94902.22;1021995;29;20035;-70
2020/12/10 02:03:44;;;;;;;53.60;27.33;;;;;;;-0.31;100.00;94899.44;1024586;28;20019;-68
2020/12/10 02:04:29;;;;;;;41.33;24.40;;;;;;;-0.31;100.00;94898.66;1030847;28;20026;-70
2020/12/10 02:05:00;;;;;;;48.45;25.80;;;;;;;-0.35;100.00;94900.09;1036041;28;20059;-68
2020/12/10 02:05:30;;;;;;;43.90;25.27;;;;;;;-0.40;100.00;94890.44;1033947;28;20095;-66
2020/12/10 02:06:01;;;;;;;57.00;27.93;;;;;;;-0.35;100.00;94897.50;1033738;28;20622;-70
2020/12/10 02:06:31;;;;;;;58.13;28.30;;;;;;;-0.33;100.00;94898.09;1030088;28;20034;-68
2020/12/10 02:07:03;;;;;;;51.53;27.17;;;;;;;-0.34;100.00;94897.28;1029963;28;20038;-65
2020/12/10 02:07:33;;;;;;;48.72;25.88;;;;;;;-0.40;100.00;94885.28;1029924;28;20080;-69
2020/12/10 02:08:04;;;;;;;58.80;28.60;;;;;;;-0.32;100.00;94891.91;1017938;29;20093;-67
2020/12/10 02:08:34;;;;;;;40.03;24.57;;;;;;;-0.35;100.00;94892.34;1018035;29;20102;-68
2020/12/10 02:09:05;;;;;;;42.05;24.40;;;;;;;-0.43;100.00;94877.97;1017943;29;20028;-68
2020/12/10 02:09:35;;;;;;;39.60;24.03;;;;;;;-0.37;100.00;94889.19;1017993;29;20517;-68
2020/12/10 02:10:06;;;;;;;41.03;24.57;;;;;;;-0.39;100.00;94889.41;1021925;28;20046;-68
2020/12/10 02:10:37;;;;;;;56.03;27.83;;;;;;;-0.44;100.00;94888.47;1021885;28;20090;-73
2020/12/10 02:11:11;;;;;;;42.38;25.35;;;;;;;-0.41;100.00;94885.47;1023388;28;20024;-70
2020/12/10 02:11:41;;;;;;;39.53;23.73;;;;;;;-0.39;100.00;94892.00;1025281;28;20356;-69
2020/12/10 02:12:11;;;;;;;53.37;27.07;;;;;;;-0.40;100.00;94889.63;1026593;28;20034;-69
2020/12/10 02:12:42;;;;;;;38.65;23.17;;;;;;;-0.38;100.00;94890.97;1029592;28;20045;-67
2020/12/10 02:13:12;;;;;;;57.67;27.27;;;;;;;-0.35;100.00;94893.13;1029923;28;20093;-67
2020/12/10 02:13:43;;;;;;;44.90;24.70;;;;;;;-0.38;100.00;94888.41;1025897;28;20020;-67
2020/12/10 02:14:13;;;;;;;45.50;25.63;;;;;;;-0.37;100.00;94890.00;1026144;28;20023;-69
2020/12/10 02:14:44;;;;;;;50.50;27.00;;;;;;;-0.39;100.00;94878.31;1025693;28;20072;-65
2020/12/10 02:15:15;;;;;;;44.63;25.17;;;;;;;-0.35;100.00;94887.19;1025935;28;20169;-67
2020/12/10 02:15:49;;;;;;;43.33;24.48;;;;;;;-0.34;100.00;94888.75;1025957;28;20484;-67
2020/12/10 02:16:20;;;;;;;61.28;28.38;;;;;;;-0.38;100.00;94888.41;1029790;28;20034;-68
2020/12/10 02:16:53;;;;;;;40.17;23.53;;;;;;;-0.50;100.00;94870.31;1029912;28;20144;-67
2020/12/10 02:17:24;;;;;;;36.22;22.15;;;;;;;-0.38;100.00;94887.63;1023162;28;20035;-66
2020/12/10 02:17:54;;;;;;;37.73;22.47;;;;;;;-0.37;100.00;94892.56;1026804;28;20045;-68
2020/12/10 02:18:27;;;;;;;37.97;23.30;;;;;;;-0.47;100.00;94876.81;1027269;28;20019;-66
2020/12/10 02:18:57;;;;;;;40.10;23.52;;;;;;;-0.37;100.00;94889.19;1022719;28;20049;-69
2020/12/10 02:19:28;;;;;;;46.53;25.37;;;;;;;-0.41;100.00;94875.94;1026572;28;20023;-68
2020/12/10 02:19:58;;;;;;;35.57;22.57;;;;;;;-0.36;100.00;94891.56;1042198;28;20013;-66
2020/12/10 02:20:29;;;;;;;45.87;23.97;;;;;;;-0.38;100.00;94892.78;1021066;29;20030;-68